Time;durP1;ratioP1;P1;durP2;ratioP2;P2;SDS_P1;SDS_P2;PMS_P1;PMS_P2;Temp;Humidity;BMP_temperature;BMP_pressure;BME280_temperature;BME280_humidity;BME280_pressure;Samples;Min_cycle;Max_cycle;Signal;HPM_P1;HPM_P2
2023/03/08 00:02:24;;;;;;;0.95;0.77;;;;;;;;;;5080980;28;20028;-83
2023/03/08 00:04:55;;;;;;;2.70;0.98;;;;;;;;;;5083670;28;20047;-82
2023/03/08 00:07:21;;;;;;;1.23;1.10;;;;;;;;;;5086614;28;20031;-83
2023/03/08 00:09:47;;;;;;;1.38;1.25;;;;;;;;;;5083276;28;20024;-82
2023/03/08 00:12:12;;;;;;;1.02;0.73;;;;;;;;;;5088780;28;20031;-83
2023/03/08 00:14:38;;;;;;;0.77;0.60;;;;;;;;;;5088905;28;20038;-82
2023/03/08 00:17:04;;;;;;;1.10;1.00;;;;;;;;;;5084432;28;20036;-84
2023/03/08 00:19:29;;;;;;;2.03;1.52;;;;;;;;;;5082318;28;20137;-83
2023/03/08 00:21:55;;;;;;;0.95;0.82;;;;;;;;;;5079617;28;20040;-83
2023/03/08 00:24:20;;;;;;;1.90;1.20;;;;;;;;;;5082954;28;20020;-83
2023/03/08 00:26:45;;;;;;;1.50;0.70;;;;;;;;;;5079670;28;20201;-82
2023/03/08 00:29:11;;;;;;;1.45;1.08;;;;;;;;;;5083479;28;20484;-83
2023/03/08 00:31:36;;;;;;;1.45;1.13;;;;;;;;;;5084994;28;20074;-82
2023/03/08 00:34:02;;;;;;;0.60;0.60;;;;;;;;;;5083655;28;20056;-82
2023/03/08 00:36:27;;;;;;;1.45;1.08;;;;;;;;;;5081881;28;20109;-83
2023/03/08 00:38:53;;;;;;;0.40;0.40;;;;;;;;;;5079705;28;20036;-84
2023/03/08 00:41:18;;;;;;;2.25;0.77;;;;;;;;;;5084726;28;20038;-82
2023/03/08 00:43:44;;;;;;;2.40;1.23;;;;;;;;;;5085666;28;20075;-82
2023/03/08 00:46:10;;;;;;;1.35;0.68;;;;;;;;;;5083303;28;20039;-83
2023/03/08 00:48:36;;;;;;;1.35;0.88;;;;;;;;;;5080405;28;20104;-84
2023/03/08 00:51:02;;;;;;;1.42;0.88;;;;;;;;;;5086061;28;20059;-84
2023/03/08 00:53:28;;;;;;;1.88;1.08;;;;;;;;;;5085605;28;20413;-84
2023/03/08 00:55:55;;;;;;;1.77;0.98;;;;;;;;;;5083126;28;20024;-84
2023/03/08 00:58:22;;;;;;;2.70;0.85;;;;;;;;;;5087096;28;20105;-84
2023/03/08 01:00:48;;;;;;;2.35;1.45;;;;;;;;;;5084888;28;20476;-84
2023/03/08 01:03:14;;;;;;;1.30;1.20;;;;;;;;;;5082284;28;20063;-85
2023/03/08 01:05:45;;;;;;;1.48;1.15;;;;;;;;;;5083689;28;20023;-83
2023/03/08 01:08:11;;;;;;;0.63;0.57;;;;;;;;;;5081887;28;20024;-83
2023/03/08 01:10:37;;;;;;;1.75;0.93;;;;;;;;;;5083142;28;20039;-83
2023/03/08 01:13:04;;;;;;;0.77;0.52;;;;;;;;;;5082325;28;20028;-83
2023/03/08 01:15:30;;;;;;;1.25;0.60;;;;;;;;;;5084279;28;20020;-84
2023/03/08 01:17:56;;;;;;;1.17;1.00;;;;;;;;;;5083254;28;20034;-84
2023/03/08 01:20:21;;;;;;;0.45;0.45;;;;;;;;;;5078405;28;20434;-83
2023/03/08 01:22:46;;;;;;;1.23;0.60;;;;;;;;;;5084819;28;20379;-84
2023/03/08 01:25:12;;;;;;;1.50;0.80;;;;;;;;;;5082769;28;20468;-83
2023/03/08 01:27:37;;;;;;;1.05;0.95;;;;;;;;;;5079731;28;20099;-83
2023/03/08 01:30:03;;;;;;;0.70;0.68;;;;;;;;;;5084300;28;20422;-82
2023/03/08 01:32:29;;;;;;;0.73;0.57;;;;;;;;;;5083940;28;20045;-83
2023/03/08 01:34:55;;;;;;;2.75;1.67;;;;;;;;;;5087789;28;20384;-83
2023/03/08 01:37:20;;;;;;;1.58;1.13;;;;;;;;;;5083869;28;20464;-83
2023/03/08 01:39:46;;;;;;;1.75;1.38;;;;;;;;;;5081743;28;20029;-83
2023/03/08 01:42:11;;;;;;;0.32;0.32;;;;;;;;;;5083165;28;20476;-86
2023/03/08 01:44:49;;;;;;;0.68;0.50;;;;;;;;;;5082590;28;20134;-84
2023/03/08 01:47:21;;;;;;;1.00;0.55;;;;;;;;;;5103840;28;20024;-82
2023/03/08 01:49:47;;;;;;;1.88;1.23;;;;;;;;;;5081279;28;20027;-84
2023/03/08 01:52:34;;;;;;;1.10;0.88;;;;;;;;;;5084774;28;20395;-83
2023/03/08 01:55:03;;;;;;;1.50;1.13;;;;;;;;;;5104446;28;20384;-84
2023/03/08 01:57:35;;;;;;;2.17;0.73;;;;;;;;;;5084081;28;20383;-84
2023/03/08 02:00:18;;;;;;;4.20;2.05;;;;;;;;;;5080948;28;20025;-85
2023/03/08 02:02:50;;;;;;;1.73;1.05;;;;;;;;;;5088083;28;20033;-83
2023/03/08 02:05:17;;;;;;;2.10;1.15;;;;;;;;;;5081941;28;20059;-84
2023/03/08 02:07:42;;;;;;;1.63;1.30;;;;;;;;;;5086650;28;20463;-82
2023/03/08 02:10:09;;;;;;;1.52;1.02;;;;;;;;;;5082907;28;20031;-84
2023/03/08 02:12:36;;;;;;;2.38;1.63;;;;;;;;;;5107765;28;20406;-83
2023/03/08 02:15:03;;;;;;;2.78;1.38;;;;;;;;;;5085067;28;20050;-83
2023/03/08 02:17:29;;;;;;;3.05;2.08;;;;;;;;;;5083752;28;20025;-82
2023/03/08 02:20:05;;;;;;;3.97;1.10;;;;;;;;;;5087780;28;20031;-83
2023/03/08 02:22:31;;;;;;;0.98;0.95;;;;;;;;;;5105152;28;20051;-82
2023/03/08 02:24:56;;;;;;;2.35;1.40;;;;;;;;;;5083009;28;20101;-84
2023/03/08 02:27:26;;;;;;;0.73;0.73;;;;;;;;;;5083092;28;20055;-82
2023/03/08 02:29:51;;;;;;;2.77;1.30;;;;;;;;;;5105647;28;20709;-83
2023/03/08 02:32:17;;;;;;;1.83;1.00;;;;;;;;;;5080048;28;20040;-82
2023/03/08 02:34:42;;;;;;;2.70;1.75;;;;;;;;;;5083736;28;20383;-83
2023/03/08 02:37:07;;;;;;;1.70;1.15;;;;;;;;;;5083113;28;20052;-82
2023/03/08 02:39:33;;;;;;;1.02;0.93;;;;;;;;;;5083549;28;20480;-82
2023/03/08 02:41:58;;;;;;;2.28;1.25;;;;;;;;;;5083023;28;20033;-83
2023/03/08 02:44:24;;;;;;;1.08;0.80;;;;;;;;;;5084564;28;20052;-83
2023/03/08 02:46:50;;;;;;;2.25;1.90;;;;;;;;;;5079092;28;20495;-85
2023/03/08 02:49:15;;;;;;;3.38;1.10;;;;;;;;;;5082787;28;20027;-82
2023/03/08 02:51:41;;;;;;;0.82;0.75;;;;;;;;;;5081197;28;20099;-84
2023/03/08 02:54:06;;;;;;;1.70;1.08;;;;;;;;;;5080716;28;20113;-83
2023/03/08 02:56:32;;;;;;;1.85;1.58;;;;;;;;;;5088081;28;21794;-83
2023/03/08 02:58:57;;;;;;;2.75;1.13;;;;;;;;;;5086062;28;20031;-83
2023/03/08 03:01:23;;;;;;;2.22;1.10;;;;;;;;;;5088753;28;20024;-84
2023/03/08 03:03:49;;;;;;;2.50;1.42;;;;;;;;;;5091853;28;20499;-83
2023/03/08 03:06:17;;;;;;;4.07;1.40;;;;;;;;;;5090175;28;20379;-84
2023/03/08 03:08:42;;;;;;;1.45;0.93;;;;;;;;;;5084426;28;20052;-84
2023/03/08 03:11:19;;;;;;;0.60;0.60;;;;;;;;;;5091638;28;20102;-84
2023/03/08 03:13:45;;;;;;;1.58;1.48;;;;;;;;;;5087360;28;20104;-84
2023/03/08 03:16:13;;;;;;;1.95;1.50;;;;;;;;;;5085964;28;20099;-84
2023/03/08 03:18:39;;;;;;;1.95;1.45;;;;;;;;;;5086827;28;20093;-84
2023/03/08 03:21:10;;;;;;;3.97;2.03;;;;;;;;;;5088968;28;20052;-84
2023/03/08 03:23:35;;;;;;;1.45;1.33;;;;;;;;;;5086713;28;20105;-84
2023/03/08 03:26:11;;;;;;;2.53;1.33;;;;;;;;;;5085534;28;20024;-86
2023/03/08 03:28:36;;;;;;;3.00;1.45;;;;;;;;;;5088872;28;20035;-83
2023/03/08 03:31:32;;;;;;;2.15;1.42;;;;;;;;;;5089383;28;20078;-85
2023/03/08 03:33:57;;;;;;;3.13;1.48;;;;;;;;;;5087412;28;20032;-87
2023/03/08 03:36:23;;;;;;;1.73;1.63;;;;;;;;;;5090495;28;20081;-84
2023/03/08 03:38:49;;;;;;;1.35;0.93;;;;;;;;;;5090922;28;20496;-86
2023/03/08 03:41:17;;;;;;;2.95;1.77;;;;;;;;;;5087812;28;20031;-85
2023/03/08 03:43:43;;;;;;;5.03;1.55;;;;;;;;;;5085232;28;20498;-86
2023/03/08 03:46:13;;;;;;;2.38;1.17;;;;;;;;;;5085911;28;20027;-84
2023/03/08 03:48:39;;;;;;;5.80;1.67;;;;;;;;;;5086523;28;20495;-83
2023/03/08 03:51:09;;;;;;;4.22;2.00;;;;;;;;;;5086939;28;20023;-88
2023/03/08 03:53:35;;;;;;;1.65;1.00;;;;;;;;;;5083994;28;20169;-84
2023/03/08 03:56:04;;;;;;;2.08;1.52;;;;;;;;;;5088876;28;20123;-84
2023/03/08 03:58:30;;;;;;;2.03;1.33;;;;;;;;;;5087193;28;20024;-86
2023/03/08 04:00:55;;;;;;;2.13;1.08;;;;;;;;;;5090350;28;20037;-83
2023/03/08 04:03:21;;;;;;;2.65;1.15;;;;;;;;;;5084720;28;20020;-84
2023/03/08 04:05:46;;;;;;;1.98;1.42;;;;;;;;;;5085174;28;20020;-84
2023/03/08 04:08:12;;;;;;;4.50;1.92;;;;;;;;;;5085785;28;20031;-84
2023/03/08 04:10:38;;;;;;;1.40;1.30;;;;;;;;;;5089469;28;20400;-83
2023/03/08 04:13:03;;;;;;;1.17;0.93;;;;;;;;;;5086152;28;20093;-85
2023/03/08 04:15:29;;;;;;;4.05;1.55;;;;;;;;;;5087261;28;20532;-84
2023/03/08 04:17:54;;;;;;;1.20;1.08;;;;;;;;;;5086465;28;20027;-83
2023/03/08 04:20:20;;;;;;;3.20;1.73;;;;;;;;;;5084697;28;20020;-84
2023/03/08 04:22:45;;;;;;;1.27;1.00;;;;;;;;;;5086258;28;20029;-86
2023/03/08 04:25:10;;;;;;;5.25;1.50;;;;;;;;;;5084563;28;20380;-85
2023/03/08 04:27:36;;;;;;;3.50;1.52;;;;;;;;;;5085126;28;20375;-84
2023/03/08 04:30:02;;;;;;;1.77;1.27;;;;;;;;;;5080087;28;20026;-84
2023/03/08 04:32:33;;;;;;;0.90;0.90;;;;;;;;;;5085837;28;20068;-85
2023/03/08 04:34:58;;;;;;;1.88;1.20;;;;;;;;;;5086453;28;20027;-86
2023/03/08 04:37:24;;;;;;;11.05;1.88;;;;;;;;;;5087241;28;20031;-84
2023/03/08 04:39:50;;;;;;;2.75;1.90;;;;;;;;;;5086059;28;20040;-83
2023/03/08 04:42:16;;;;;;;1.52;0.98;;;;;;;;;;5084967;28;20032;-84
2023/03/08 04:44:41;;;;;;;5.03;2.33;;;;;;;;;;5087003;28;20379;-85
2023/03/08 04:47:08;;;;;;;1.70;1.10;;;;;;;;;;5086586;28;20024;-87
2023/03/08 04:49:34;;;;;;;6.13;2.00;;;;;;;;;;5087843;28;20028;-84
2023/03/08 04:51:59;;;;;;;5.10;1.20;;;;;;;;;;5083372;28;20116;-85
2023/03/08 04:54:26;;;;;;;12.25;1.80;;;;;;;;;;5083799;28;20072;-84
2023/03/08 04:56:51;;;;;;;1.38;1.00;;;;;;;;;;5081409;28;20174;-85
2023/03/08 04:59:17;;;;;;;1.40;1.10;;;;;;;;;;5087895;28;20114;-84
2023/03/08 05:01:42;;;;;;;3.03;1.63;;;;;;;;;;5086871;28;20475;-87
2023/03/08 05:04:11;;;;;;;2.13;1.77;;;;;;;;;;5085589;28;20024;-84
2023/03/08 05:06:37;;;;;;;3.10;1.48;;;;;;;;;;5089554;28;20028;-84
2023/03/08 05:09:03;;;;;;;3.38;1.77;;;;;;;;;;5078251;28;20028;-83
2023/03/08 05:11:29;;;;;;;2.83;1.60;;;;;;;;;;5081825;28;20111;-84
2023/03/08 05:13:57;;;;;;;1.80;1.35;;;;;;;;;;5081959;28;20357;-83
2023/03/08 05:16:23;;;;;;;3.50;1.83;;;;;;;;;;5083189;28;20111;-83
2023/03/08 05:18:49;;;;;;;3.85;2.15;;;;;;;;;;5091093;28;20039;-82
2023/03/08 05:21:20;;;;;;;4.05;2.28;;;;;;;;;;5084245;28;20023;-83
2023/03/08 05:23:45;;;;;;;2.72;2.38;;;;;;;;;;5088103;28;20543;-84
2023/03/08 05:26:14;;;;;;;4.45;3.05;;;;;;;;;;5084616;28;20028;-84
2023/03/08 05:28:42;;;;;;;3.33;2.85;;;;;;;;;;5107804;28;20111;-83
2023/03/08 05:31:10;;;;;;;4.60;2.70;;;;;;;;;;5083497;28;20028;-85
2023/03/08 05:33:36;;;;;;;2.45;2.00;;;;;;;;;;5085832;28;20032;-86
2023/03/08 05:36:03;;;;;;;2.88;1.75;;;;;;;;;;5088203;28;20023;-83
2023/03/08 05:38:29;;;;;;;5.97;1.90;;;;;;;;;;5085059;28;20487;-84
2023/03/08 05:40:58;;;;;;;2.08;1.40;;;;;;;;;;5086751;28;20024;-82
2023/03/08 05:43:23;;;;;;;2.03;1.73;;;;;;;;;;5082727;28;20120;-82
2023/03/08 05:45:55;;;;;;;1.25;1.20;;;;;;;;;;5086366;28;20302;-82
2023/03/08 05:48:20;;;;;;;4.70;2.72;;;;;;;;;;5081723;28;20027;-82
2023/03/08 05:50:46;;;;;;;3.30;2.60;;;;;;;;;;5078719;28;20059;-82
2023/03/08 05:53:11;;;;;;;4.22;2.67;;;;;;;;;;5083629;28;20040;-80
2023/03/08 05:55:37;;;;;;;1.58;1.23;;;;;;;;;;5084705;28;20028;-80
2023/03/08 05:58:02;;;;;;;2.50;2.00;;;;;;;;;;5081883;28;20105;-81
2023/03/08 06:00:27;;;;;;;3.65;1.77;;;;;;;;;;5082073;28;20496;-81
2023/03/08 06:02:53;;;;;;;3.15;1.05;;;;;;;;;;5088687;28;20040;-80
2023/03/08 06:05:18;;;;;;;1.40;1.10;;;;;;;;;;5087671;28;20024;-79
2023/03/08 06:07:44;;;;;;;1.67;1.30;;;;;;;;;;5085012;28;20116;-78
2023/03/08 06:10:09;;;;;;;2.15;1.27;;;;;;;;;;5083566;28;20135;-78
2023/03/08 06:12:35;;;;;;;1.90;1.45;;;;;;;;;;5080506;28;20051;-80
2023/03/08 06:15:00;;;;;;;2.92;1.52;;;;;;;;;;5083719;28;20059;-78
2023/03/08 06:17:26;;;;;;;4.88;2.38;;;;;;;;;;5082424;28;20023;-82
2023/03/08 06:19:51;;;;;;;4.82;1.98;;;;;;;;;;5078205;28;20032;-79
2023/03/08 06:22:16;;;;;;;1.80;1.58;;;;;;;;;;5082950;28;20029;-79
2023/03/08 06:24:42;;;;;;;5.60;2.03;;;;;;;;;;5087483;28;20059;-77
2023/03/08 06:27:08;;;;;;;3.60;2.38;;;;;;;;;;5076925;28;20020;-78
2023/03/08 06:29:33;;;;;;;3.42;2.67;;;;;;;;;;5084851;28;20032;-80
2023/03/08 06:31:59;;;;;;;2.75;1.42;;;;;;;;;;5088519;28;20040;-79
2023/03/08 06:34:24;;;;;;;5.53;2.75;;;;;;;;;;5085179;28;20028;-78
2023/03/08 06:36:50;;;;;;;1.90;1.70;;;;;;;;;;5086515;28;20119;-79
2023/03/08 06:39:16;;;;;;;3.20;1.20;;;;;;;;;;5086573;28;20054;-79
2023/03/08 06:41:41;;;;;;;5.18;1.90;;;;;;;;;;5090257;28;20056;-79
2023/03/08 06:44:07;;;;;;;3.95;2.72;;;;;;;;;;5089030;28;20020;-80
2023/03/08 06:46:32;;;;;;;3.13;2.70;;;;;;;;;;5108951;28;20024;-78
2023/03/08 06:48:59;;;;;;;9.48;3.75;;;;;;;;;;5079401;28;20103;-81
2023/03/08 06:51:25;;;;;;;3.28;2.35;;;;;;;;;;5085264;28;20027;-80
2023/03/08 06:53:50;;;;;;;2.33;1.75;;;;;;;;;;5083278;28;20028;-81
2023/03/08 06:56:16;;;;;;;12.73;2.25;;;;;;;;;;5086262;28;20045;-80
2023/03/08 06:58:42;;;;;;;2.05;1.67;;;;;;;;;;5082050;28;20036;-80
2023/03/08 07:01:08;;;;;;;3.50;2.03;;;;;;;;;;5087943;28;20046;-79
2023/03/08 07:03:34;;;;;;;4.45;2.40;;;;;;;;;;5079681;28;20029;-80
2023/03/08 07:06:05;;;;;;;2.88;1.77;;;;;;;;;;5084060;28;20090;-83
2023/03/08 07:08:31;;;;;;;3.03;1.77;;;;;;;;;;5080829;28;20052;-80
2023/03/08 07:10:57;;;;;;;3.80;1.67;;;;;;;;;;5084987;28;20087;-80
2023/03/08 07:13:23;;;;;;;3.03;1.48;;;;;;;;;;5085410;28;20024;-79
2023/03/08 07:15:49;;;;;;;3.40;1.63;;;;;;;;;;5086901;28;20039;-79
2023/03/08 07:18:15;;;;;;;1.73;1.25;;;;;;;;;;5089709;28;20114;-79
2023/03/08 07:20:40;;;;;;;3.38;1.27;;;;;;;;;;5088508;28;20486;-79
2023/03/08 07:23:05;;;;;;;1.55;1.05;;;;;;;;;;5091872;28;20149;-78
2023/03/08 07:25:31;;;;;;;2.58;1.23;;;;;;;;;;5084174;28;20028;-82
2023/03/08 07:27:58;;;;;;;1.08;0.98;;;;;;;;;;5079646;28;20040;-80
2023/03/08 07:30:23;;;;;;;3.13;2.25;;;;;;;;;;5082138;28;20154;-81
2023/03/08 07:32:52;;;;;;;0.63;0.63;;;;;;;;;;5089372;28;20509;-80
2023/03/08 07:35:18;;;;;;;3.60;1.50;;;;;;;;;;5083995;28;20242;-78
2023/03/08 07:37:45;;;;;;;3.42;1.65;;;;;;;;;;5083144;28;20527;-80
2023/03/08 07:40:12;;;;;;;2.92;1.30;;;;;;;;;;5087802;28;20468;-80
2023/03/08 07:42:38;;;;;;;2.00;1.23;;;;;;;;;;5080390;28;20024;-80
2023/03/08 07:45:03;;;;;;;2.78;1.55;;;;;;;;;;5086671;28;20020;-79
2023/03/08 07:47:29;;;;;;;9.70;1.63;;;;;;;;;;5089123;28;20214;-79
2023/03/08 07:49:54;;;;;;;3.17;1.42;;;;;;;;;;5082772;28;20031;-79
2023/03/08 07:52:20;;;;;;;4.53;3.38;;;;;;;;;;5090148;28;20035;-80
2023/03/08 07:54:45;;;;;;;9.68;4.03;;;;;;;;;;5090261;28;20034;-81
2023/03/08 07:57:14;;;;;;;2.78;1.80;;;;;;;;;;5087999;28;20047;-79
2023/03/08 07:59:40;;;;;;;6.78;2.53;;;;;;;;;;5103585;28;20036;-80
2023/03/08 08:02:08;;;;;;;4.43;1.35;;;;;;;;;;5087542;28;20031;-79
2023/03/08 08:04:34;;;;;;;2.72;0.98;;;;;;;;;;5090317;28;20027;-80
2023/03/08 08:07:00;;;;;;;1.80;1.05;;;;;;;;;;5088713;28;20031;-81
2023/03/08 08:09:25;;;;;;;2.65;1.38;;;;;;;;;;5082665;28;20016;-80
2023/03/08 08:11:50;;;;;;;2.60;1.70;;;;;;;;;;5081821;28;20089;-80
2023/03/08 08:14:16;;;;;;;3.80;1.98;;;;;;;;;;5083897;28;20095;-80
2023/03/08 08:16:41;;;;;;;3.10;1.65;;;;;;;;;;5080962;28;20031;-79
2023/03/08 08:19:09;;;;;;;2.33;1.60;;;;;;;;;;5087545;28;20118;-80
2023/03/08 08:21:35;;;;;;;3.70;1.45;;;;;;;;;;5084228;28;20024;-80
2023/03/08 08:24:00;;;;;;;1.70;1.13;;;;;;;;;;5081056;28;20081;-79
2023/03/08 08:26:26;;;;;;;1.95;1.02;;;;;;;;;;5088936;28;20028;-78
2023/03/08 08:28:54;;;;;;;1.90;1.38;;;;;;;;;;5081389;28;20027;-78
2023/03/08 08:31:22;;;;;;;2.38;1.10;;;;;;;;;;5104287;28;20127;-79
2023/03/08 08:33:48;;;;;;;2.55;1.15;;;;;;;;;;5082322;28;20024;-80
2023/03/08 08:36:17;;;;;;;2.67;1.33;;;;;;;;;;5082845;28;20379;-82
2023/03/08 08:38:44;;;;;;;1.95;1.42;;;;;;;;;;5101925;28;20047;-80
2023/03/08 08:41:10;;;;;;;2.28;1.70;;;;;;;;;;5082195;28;20034;-80
2023/03/08 08:43:36;;;;;;;6.38;1.48;;;;;;;;;;5089178;28;20036;-81
2023/03/08 08:46:04;;;;;;;3.53;1.63;;;;;;;;;;5104429;28;20097;-80
2023/03/08 08:48:31;;;;;;;2.70;0.80;;;;;;;;;;5088335;28;20032;-80
2023/03/08 08:50:57;;;;;;;0.80;0.70;;;;;;;;;;5088467;28;20019;-79
2023/03/08 08:53:23;;;;;;;0.98;0.88;;;;;;;;;;5084302;28;20028;-81
2023/03/08 08:55:48;;;;;;;2.92;1.38;;;;;;;;;;5083105;28;20028;-81
2023/03/08 08:58:14;;;;;;;2.53;1.20;;;;;;;;;;5084106;28;20475;-80
2023/03/08 09:00:39;;;;;;;4.88;1.35;;;;;;;;;;5079867;28;20047;-81
2023/03/08 09:03:05;;;;;;;0.90;0.75;;;;;;;;;;5084375;28;20099;-81
2023/03/08 09:05:32;;;;;;;4.07;1.52;;;;;;;;;;5080158;28;20498;-79
2023/03/08 09:07:59;;;;;;;1.95;1.25;;;;;;;;;;5075945;28;20380;-80
2023/03/08 09:10:27;;;;;;;4.32;1.48;;;;;;;;;;5082321;28;20451;-80
2023/03/08 09:12:53;;;;;;;6.90;1.92;;;;;;;;;;5083174;28;20020;-80
2023/03/08 09:15:20;;;;;;;2.00;1.65;;;;;;;;;;5079518;28;20091;-79
2023/03/08 09:17:46;;;;;;;1.50;1.20;;;;;;;;;;5082033;28;20024;-80
2023/03/08 09:20:12;;;;;;;2.78;1.58;;;;;;;;;;5083495;28;20676;-80
2023/03/08 09:22:38;;;;;;;4.18;2.10;;;;;;;;;;5077721;28;20045;-79
2023/03/08 09:25:05;;;;;;;2.78;1.58;;;;;;;;;;5082559;28;20454;-78
2023/03/08 09:27:30;;;;;;;3.17;2.15;;;;;;;;;;5079306;28;20036;-80
2023/03/08 09:29:56;;;;;;;1.52;1.23;;;;;;;;;;5085958;28;20535;-81
2023/03/08 09:32:22;;;;;;;1.33;0.98;;;;;;;;;;5081661;28;20043;-81
2023/03/08 09:34:48;;;;;;;2.08;1.38;;;;;;;;;;5103057;28;20028;-82
2023/03/08 09:37:13;;;;;;;1.73;1.30;;;;;;;;;;5087858;28;20102;-79
2023/03/08 09:39:39;;;;;;;8.07;1.25;;;;;;;;;;5086046;28;20046;-82
2023/03/08 09:42:06;;;;;;;1.60;1.25;;;;;;;;;;5079472;28;20052;-81
2023/03/08 09:45:02;;;;;;;2.15;1.27;;;;;;;;;;5080029;28;20035;-81
2023/03/08 09:47:33;;;;;;;3.53;1.40;;;;;;;;;;5080782;28;20067;-80
2023/03/08 09:50:11;;;;;;;4.55;2.13;;;;;;;;;;5081775;28;20028;-80
2023/03/08 09:52:42;;;;;;;2.25;1.52;;;;;;;;;;5083104;28;20395;-82
2023/03/08 09:55:28;;;;;;;3.80;1.52;;;;;;;;;;5082210;28;20024;-80
2023/03/08 09:57:56;;;;;;;4.13;1.50;;;;;;;;;;5082256;28;20035;-81
2023/03/08 10:00:34;;;;;;;3.45;1.92;;;;;;;;;;5085673;28;20029;-81
2023/03/08 10:03:05;;;;;;;3.30;1.77;;;;;;;;;;5084079;28;20066;-80
2023/03/08 10:05:39;;;;;;;2.97;1.80;;;;;;;;;;5078366;28;20468;-82
2023/03/08 10:08:25;;;;;;;1.55;1.38;;;;;;;;;;5081026;28;20032;-83
2023/03/08 10:11:00;;;;;;;3.60;1.23;;;;;;;;;;5079277;28;20043;-81
2023/03/08 10:13:26;;;;;;;3.75;1.70;;;;;;;;;;5077658;28;20036;-80
2023/03/08 10:15:57;;;;;;;5.07;1.83;;;;;;;;;;5084400;28;20024;-82
2023/03/08 10:18:33;;;;;;;1.95;1.55;;;;;;;;;;5088009;28;20073;-80
2023/03/08 10:21:00;;;;;;;2.15;1.35;;;;;;;;;;5076378;28;20032;-80
2023/03/08 10:23:28;;;;;;;4.47;1.90;;;;;;;;;;5080336;28;20024;-81
2023/03/08 10:25:53;;;;;;;1.23;1.10;;;;;;;;;;5083869;28;20039;-82
2023/03/08 10:28:21;;;;;;;5.60;2.13;;;;;;;;;;5081454;28;20439;-80
2023/03/08 10:30:53;;;;;;;2.33;1.30;;;;;;;;;;5087653;28;20026;-82
2023/03/08 10:33:23;;;;;;;3.70;1.48;;;;;;;;;;5087338;28;20050;-82
2023/03/08 10:36:17;;;;;;;3.35;1.73;;;;;;;;;;5080170;28;20028;-81
2023/03/08 10:39:15;;;;;;;3.63;1.52;;;;;;;;;;5083116;28;20031;-81
2023/03/08 10:42:14;;;;;;;2.75;1.63;;;;;;;;;;5081684;28;20346;-82
2023/03/08 10:44:44;;;;;;;1.30;1.08;;;;;;;;;;5079106;28;20485;-79
2023/03/08 10:47:19;;;;;;;;;;;;;;;;;;5079778;28;20028;-80
2023/03/08 10:49:46;;;;;;;4.03;1.63;;;;;;;;;;5085255;28;19927;-80
2023/03/08 10:52:24;;;;;;;3.03;1.75;;;;;;;;;;5086139;28;20110;-82
2023/03/08 10:55:04;;;;;;;3.28;1.80;;;;;;;;;;5075899;28;20043;-81
2023/03/08 10:57:29;;;;;;;;;;;;;;;;;;5078182;28;20413;-80
2023/03/08 10:59:58;;;;;;;3.72;2.45;;;;;;;;;;5074575;28;19924;-81
2023/03/08 11:02:23;;;;;;;4.97;2.58;;;;;;;;;;5073359;28;20039;-80
2023/03/08 11:04:52;;;;;;;2.88;2.00;;;;;;;;;;5085464;28;20395;-81
2023/03/08 11:07:25;;;;;;;4.57;2.03;;;;;;;;;;5082733;28;20032;-80
2023/03/08 11:09:51;;;;;;;6.13;2.97;;;;;;;;;;5080208;28;20030;-79
2023/03/08 11:12:24;;;;;;;3.67;2.03;;;;;;;;;;5084837;28;20028;-79
2023/03/08 11:14:51;;;;;;;4.00;2.53;;;;;;;;;;5079548;28;20025;-82
2023/03/08 11:17:29;;;;;;;5.90;2.53;;;;;;;;;;5090054;28;20031;-81
2023/03/08 11:20:00;;;;;;;5.07;2.42;;;;;;;;;;5085330;28;20073;-79
2023/03/08 11:22:52;;;;;;;3.22;1.75;;;;;;;;;;5088172;28;20027;-79
2023/03/08 11:25:24;;;;;;;4.07;1.83;;;;;;;;;;5082332;28;20028;-81
2023/03/08 11:28:22;;;;;;;3.72;2.20;;;;;;;;;;5076541;28;20032;-82
2023/03/08 11:31:05;;;;;;;4.32;2.17;;;;;;;;;;5087587;28;20139;-79
2023/03/08 11:33:55;;;;;;;3.70;1.83;;;;;;;;;;5078612;28;20540;-81
2023/03/08 11:36:35;;;;;;;2.38;1.33;;;;;;;;;;5085491;28;20024;-79
2023/03/08 11:39:23;;;;;;;3.35;1.50;;;;;;;;;;5089777;28;20020;-82
2023/03/08 11:42:10;;;;;;;2.05;1.15;;;;;;;;;;5102760;28;20087;-79
2023/03/08 11:45:00;;;;;;;3.05;1.63;;;;;;;;;;5100414;28;20028;-80
2023/03/08 11:47:50;;;;;;;4.28;1.55;;;;;;;;;;5082424;28;20048;-82
2023/03/08 11:50:15;;;;;;;;;;;;;;;;;;5106383;27;20361;-84
2023/03/08 11:53:00;;;;;;;2.85;1.83;;;;;;;;;;5082694;28;19976;-81
2023/03/08 11:55:54;;;;;;;2.75;1.40;;;;;;;;;;5079568;28;20078;-82
2023/03/08 11:58:44;;;;;;;1.73;1.30;;;;;;;;;;5083676;28;20039;-81
2023/03/08 12:01:31;;;;;;;2.15;1.45;;;;;;;;;;5081532;28;20479;-82
2023/03/08 12:04:05;;;;;;;3.67;1.60;;;;;;;;;;5087129;28;20063;-81
2023/03/08 12:06:39;;;;;;;3.70;0.90;;;;;;;;;;5085925;28;20028;-80
2023/03/08 12:09:29;;;;;;;1.10;1.00;;;;;;;;;;5083288;28;20020;-82
2023/03/08 12:12:14;;;;;;;2.45;1.45;;;;;;;;;;5088711;28;20028;-79
2023/03/08 12:14:53;;;;;;;4.55;1.90;;;;;;;;;;5087046;28;20081;-80
2023/03/08 12:17:24;;;;;;;3.20;1.38;;;;;;;;;;5086789;28;20020;-80
2023/03/08 12:19:50;;;;;;;2.38;1.40;;;;;;;;;;5084562;28;20036;-82
2023/03/08 12:22:37;;;;;;;1.95;1.17;;;;;;;;;;5088359;28;20058;-80
2023/03/08 12:25:19;;;;;;;3.03;1.30;;;;;;;;;;5084458;28;20069;-83
2023/03/08 12:28:23;;;;;;;1.00;0.80;;;;;;;;;;5075172;28;20035;-82
2023/03/08 12:31:06;;;;;;;1.65;1.23;;;;;;;;;;5083491;28;20019;-82
2023/03/08 12:33:32;;;;;;;2.55;0.95;;;;;;;;;;5081967;28;20047;-81
2023/03/08 12:36:02;;;;;;;4.60;1.27;;;;;;;;;;5090956;28;20024;-83
2023/03/08 12:38:29;;;;;;;2.42;0.80;;;;;;;;;;5079182;28;20387;-79
2023/03/08 12:40:55;;;;;;;1.65;1.17;;;;;;;;;;5090338;28;20384;-80
2023/03/08 12:43:20;;;;;;;2.60;1.05;;;;;;;;;;5087407;28;20029;-79
2023/03/08 12:46:01;;;;;;;2.13;0.55;;;;;;;;;;5086031;28;20601;-80
2023/03/08 12:48:37;;;;;;;0.80;0.50;;;;;;;;;;5081709;28;20020;-82
2023/03/08 12:51:16;;;;;;;1.08;0.50;;;;;;;;;;5083206;28;20348;-82
2023/03/08 12:53:50;;;;;;;0.60;0.60;;;;;;;;;;5084251;28;20094;-82
2023/03/08 12:56:47;;;;;;;0.65;0.50;;;;;;;;;;5087609;28;20094;-81
2023/03/08 12:59:12;;;;;;;0.50;0.50;;;;;;;;;;5106241;28;20055;-79
2023/03/08 13:01:40;;;;;;;0.52;0.52;;;;;;;;;;5080970;28;20055;-81
2023/03/08 13:04:30;;;;;;;2.13;0.85;;;;;;;;;;5087851;28;20054;-82
2023/03/08 13:07:04;;;;;;;1.40;0.85;;;;;;;;;;5083020;28;20024;-80
2023/03/08 13:09:36;;;;;;;1.52;0.77;;;;;;;;;;5078895;28;20020;-82
2023/03/08 13:12:04;;;;;;;1.70;1.02;;;;;;;;;;5084093;28;20468;-83
2023/03/08 13:14:56;;;;;;;0.80;0.70;;;;;;;;;;5083961;28;20024;-84
2023/03/08 13:17:38;;;;;;;1.85;0.82;;;;;;;;;;5089522;28;20048;-80
2023/03/08 13:20:28;;;;;;;1.27;0.70;;;;;;;;;;5090232;28;20032;-80
2023/03/08 13:23:09;;;;;;;1.25;0.80;;;;;;;;;;5077414;28;20044;-82
2023/03/08 13:25:34;;;;;;;0.80;0.60;;;;;;;;;;5083126;28;20572;-82
2023/03/08 13:28:10;;;;;;;0.63;0.63;;;;;;;;;;5090382;28;20051;-81
2023/03/08 13:30:55;;;;;;;1.05;0.60;;;;;;;;;;5078188;28;20095;-80
2023/03/08 13:33:26;;;;;;;5.07;0.90;;;;;;;;;;5076549;28;20041;-81
2023/03/08 13:36:06;;;;;;;0.85;0.75;;;;;;;;;;5082733;28;20396;-81
2023/03/08 13:38:34;;;;;;;1.00;0.68;;;;;;;;;;5081066;28;20027;-79
2023/03/08 13:40:59;;;;;;;5.10;0.68;;;;;;;;;;5087170;28;20024;-81
2023/03/08 13:43:29;;;;;;;0.93;0.70;;;;;;;;;;5084224;28;20357;-80
2023/03/08 13:45:58;;;;;;;1.08;0.55;;;;;;;;;;5078385;28;20036;-82
2023/03/08 13:48:28;;;;;;;0.82;0.60;;;;;;;;;;5078596;28;20044;-83
2023/03/08 13:50:54;;;;;;;;;;;;;;;;;;5083712;28;20491;-82
2023/03/08 13:53:23;;;;;;;6.00;0.88;;;;;;;;;;5083811;28;19955;-85
2023/03/08 13:55:53;;;;;;;2.13;0.93;;;;;;;;;;5082421;28;20035;-87
2023/03/08 13:58:24;;;;;;;;;;;;;;;;;;5081620;28;20028;-88
2023/03/08 14:01:01;;;;;;;3.67;0.75;;;;;;;;;;5073093;28;19920;-82
2023/03/08 14:03:29;;;;;;;0.68;0.50;;;;;;;;;;5078911;28;20490;-80
2023/03/08 14:05:55;;;;;;;1.08;0.55;;;;;;;;;;5073464;28;20029;-79
2023/03/08 14:08:23;;;;;;;0.80;0.60;;;;;;;;;;5076929;28;20099;-82
2023/03/08 14:11:01;;;;;;;1.67;0.68;;;;;;;;;;5080463;28;20031;-80
2023/03/08 14:13:30;;;;;;;0.82;0.63;;;;;;;;;;5085448;28;20024;-81
2023/03/08 14:15:58;;;;;;;2.10;1.30;;;;;;;;;;5084272;28;20591;-81
2023/03/08 14:18:39;;;;;;;1.90;0.80;;;;;;;;;;5080626;28;20257;-79
2023/03/08 14:21:20;;;;;;;3.70;1.70;;;;;;;;;;5081046;28;20027;-80
2023/03/08 14:23:51;;;;;;;0.52;0.52;;;;;;;;;;5083657;28;20055;-84
2023/03/08 14:26:36;;;;;;;1.48;0.70;;;;;;;;;;5085659;28;20028;-82
2023/03/08 14:29:20;;;;;;;0.73;0.45;;;;;;;;;;5082006;28;20074;-81
2023/03/08 14:31:53;;;;;;;1.65;0.73;;;;;;;;;;5085696;28;20044;-79
2023/03/08 14:34:22;;;;;;;0.85;0.70;;;;;;;;;;5080564;28;20043;-81
2023/03/08 14:37:01;;;;;;;0.80;0.60;;;;;;;;;;5076629;28;20073;-80
2023/03/08 14:39:28;;;;;;;0.90;0.60;;;;;;;;;;5083879;28;20056;-79
2023/03/08 14:41:54;;;;;;;0.40;0.40;;;;;;;;;;5081980;28;20105;-82
2023/03/08 14:44:23;;;;;;;0.52;0.35;;;;;;;;;;5078858;28;20079;-80
2023/03/08 14:46:56;;;;;;;0.30;0.30;;;;;;;;;;5074064;28;20124;-79
2023/03/08 14:49:25;;;;;;;2.92;0.85;;;;;;;;;;5084295;28;20107;-80
2023/03/08 14:51:51;;;;;;;0.50;0.50;;;;;;;;;;5088204;28;20144;-78
2023/03/08 14:54:35;;;;;;;0.68;0.45;;;;;;;;;;5080151;28;20035;-80
2023/03/08 14:57:27;;;;;;;1.30;0.63;;;;;;;;;;5079828;28;20020;-79
2023/03/08 14:59:59;;;;;;;0.95;0.55;;;;;;;;;;5087278;28;20071;-80
2023/03/08 15:02:25;;;;;;;0.40;0.40;;;;;;;;;;5079636;28;20035;-79